createdAt,value
2023-02-05T00:00:58.133Z,12.80
2023-02-05T00:03:43.301Z,12.27
2023-02-05T00:06:12.880Z,12.10
2023-02-05T00:08:42.399Z,12.55
2023-02-05T00:11:11.681Z,12.90
2023-02-05T00:13:43.950Z,11.70
2023-02-05T00:16:15.326Z,12.73
2023-02-05T00:18:46.632Z,11.43
2023-02-05T00:21:16.931Z,11.00
2023-02-05T00:23:46.998Z,10.30
2023-02-05T00:26:16.349Z,10.05
2023-02-05T00:28:47.081Z,9.98
2023-02-05T00:31:19.847Z,11.63
2023-02-05T00:33:52.646Z,10.80
2023-02-05T00:36:23.126Z,11.85
2023-02-05T00:38:53.747Z,10.77
2023-02-05T00:41:23.026Z,10.20
2023-02-05T00:43:52.682Z,10.75
2023-02-05T00:46:21.916Z,8.73
2023-02-05T00:48:52.728Z,10.75
2023-02-05T00:51:21.840Z,11.15
2023-02-05T00:53:51.435Z,10.60
2023-02-05T00:56:20.579Z,9.10
2023-02-05T00:58:51.308Z,13.45
2023-02-05T01:01:20.598Z,13.52
2023-02-05T01:03:51.655Z,12.88
2023-02-05T01:06:21.058Z,12.88
2023-02-05T01:08:50.634Z,13.02
2023-02-05T01:11:20.190Z,15.27
2023-02-05T01:13:49.710Z,13.20
2023-02-05T01:16:18.986Z,14.50
2023-02-05T01:18:48.486Z,12.55
2023-02-05T01:21:19.051Z,14.52
2023-02-05T01:23:48.720Z,12.75
2023-02-05T01:26:17.980Z,15.38
2023-02-05T01:28:48.634Z,17.75
2023-02-05T01:31:18.082Z,15.75
2023-02-05T01:33:47.648Z,16.05
2023-02-05T01:36:18.142Z,17.00
2023-02-05T01:38:48.943Z,16.35
2023-02-05T01:41:18.184Z,14.88
2023-02-05T01:44:09.251Z,14.55
2023-02-05T01:46:40.260Z,11.35
2023-02-05T01:49:12.630Z,13.02
2023-02-05T01:51:45.023Z,12.13
2023-02-05T01:54:15.105Z,11.95
2023-02-05T01:56:50.993Z,11.98
2023-02-05T01:59:24.823Z,10.18
2023-02-05T02:01:55.225Z,10.73
2023-02-05T02:04:35.899Z,10.73
2023-02-05T02:07:09.734Z,11.00
2023-02-05T02:09:41.009Z,9.70
2023-02-05T02:12:11.646Z,9.93
2023-02-05T02:14:43.651Z,10.77
2023-02-05T02:17:14.275Z,10.20
2023-02-05T02:19:51.874Z,10.52
2023-02-05T02:22:47.493Z,9.45
2023-02-05T02:25:53.832Z,8.93
2023-02-05T02:28:30.687Z,10.70
2023-02-05T02:31:05.553Z,9.93
2023-02-05T02:33:38.770Z,9.88
2023-02-05T02:36:14.408Z,9.93
2023-02-05T02:38:46.584Z,11.25
2023-02-05T02:41:20.152Z,9.82
2023-02-05T02:43:54.780Z,10.98
2023-02-05T02:46:28.645Z,9.83
2023-02-05T02:49:01.704Z,10.10
2023-02-05T02:51:33.155Z,8.23
2023-02-05T02:54:07.919Z,8.32
2023-02-05T02:56:40.162Z,10.32
2023-02-05T02:59:15.361Z,9.20
2023-02-05T03:04:26.921Z,9.13
2023-02-05T03:07:03.083Z,8.50
2023-02-05T03:09:40.809Z,8.68
2023-02-05T03:12:10.563Z,8.60
2023-02-05T03:14:41.814Z,10.07
2023-02-05T03:17:18.574Z,10.05
2023-02-05T03:19:52.065Z,8.75
2023-02-05T03:22:21.632Z,8.50
2023-02-05T03:24:52.140Z,8.85
2023-02-05T03:27:23.888Z,9.00
2023-02-05T03:29:55.229Z,8.77
2023-02-05T03:33:50.578Z,9.48
2023-02-05T03:36:27.444Z,8.50
2023-02-05T03:39:18.772Z,9.15
2023-02-05T03:42:00.112Z,8.30
2023-02-05T03:45:05.733Z,8.23
2023-02-05T03:47:52.476Z,8.27
2023-02-05T03:50:28.067Z,8.98
2023-02-05T03:53:05.992Z,9.15
2023-02-05T03:55:42.280Z,9.00
2023-02-05T03:58:16.473Z,9.80
2023-02-05T04:00:47.660Z,8.93
2023-02-05T04:03:19.141Z,9.27
2023-02-05T04:05:48.855Z,8.82
2023-02-05T04:08:18.230Z,8.75
2023-02-05T04:10:51.667Z,8.73
2023-02-05T04:13:20.871Z,8.82
2023-02-05T04:15:51.704Z,7.82
2023-02-05T04:18:22.975Z,8.77
2023-02-05T04:20:53.106Z,8.80
2023-02-05T04:23:26.034Z,9.65
2023-02-05T04:25:56.407Z,9.68
2023-02-05T04:28:36.113Z,8.63
2023-02-05T04:31:09.560Z,8.60
2023-02-05T04:33:43.046Z,8.23
2023-02-05T04:36:15.489Z,9.10
2023-02-05T04:38:45.394Z,9.40
2023-02-05T04:41:15.573Z,7.40
2023-02-05T04:43:44.908Z,8.50
2023-02-05T04:46:14.533Z,7.88
2023-02-05T04:48:45.297Z,7.97
2023-02-05T04:51:17.274Z,8.15
2023-02-05T04:53:47.112Z,7.80
2023-02-05T04:56:18.515Z,7.50
2023-02-05T04:58:47.964Z,8.57
2023-02-05T05:01:20.274Z,9.05
2023-02-05T05:03:51.596Z,7.72
2023-02-05T05:06:21.643Z,7.25
2023-02-05T05:08:51.027Z,7.65
2023-02-05T05:11:21.331Z,8.52
2023-02-05T05:13:52.096Z,8.85
2023-02-05T05:16:21.820Z,7.30
2023-02-05T05:18:53.816Z,9.30
2023-02-05T05:21:23.360Z,8.10
2023-02-05T05:23:52.566Z,9.75
2023-02-05T05:26:22.095Z,7.63
2023-02-05T05:28:55.361Z,9.27
2023-02-05T05:31:25.660Z,7.85
2023-02-05T05:33:56.258Z,8.75
2023-02-05T05:36:25.825Z,7.95
2023-02-05T05:38:55.022Z,7.50
2023-02-05T05:41:43.578Z,8.05
2023-02-05T05:44:12.964Z,7.70
2023-02-05T05:46:42.596Z,7.57
2023-02-05T05:49:13.113Z,7.50
2023-02-05T05:51:42.674Z,8.45
2023-02-05T05:54:11.876Z,7.30
2023-02-05T05:56:41.626Z,8.07
2023-02-05T05:59:12.360Z,8.00
2023-02-05T06:01:41.944Z,8.45
2023-02-05T06:04:12.513Z,7.47
2023-02-05T06:06:42.660Z,7.47
2023-02-05T06:09:12.101Z,7.65
2023-02-05T06:11:41.668Z,8.73
2023-02-05T06:14:10.827Z,7.72
2023-02-05T06:16:40.746Z,6.63
2023-02-05T06:19:10.233Z,8.07
2023-02-05T06:21:41.169Z,8.82
2023-02-05T06:24:10.597Z,7.82
2023-02-05T06:26:40.298Z,7.97
2023-02-05T06:29:09.454Z,8.10
2023-02-05T06:31:39.133Z,8.93
2023-02-05T06:34:08.406Z,7.75
2023-02-05T06:36:37.836Z,8.75
2023-02-05T06:39:08.334Z,9.77
2023-02-05T06:41:37.828Z,10.02
2023-02-05T06:44:07.252Z,10.40
2023-02-05T06:46:36.872Z,9.68
2023-02-05T06:49:06.195Z,11.93
2023-02-05T06:51:35.603Z,11.02
2023-02-05T06:54:04.816Z,11.90
2023-02-05T06:56:36.014Z,11.90
2023-02-05T06:59:05.372Z,11.82
2023-02-05T07:01:35.055Z,11.52
2023-02-05T07:04:04.384Z,12.18
2023-02-05T07:06:34.104Z,11.55
2023-02-05T07:09:03.467Z,11.13
2023-02-05T07:11:34.503Z,10.80
2023-02-05T07:14:03.871Z,10.90
2023-02-05T07:16:33.668Z,10.57
2023-02-05T07:19:02.941Z,9.63
2023-02-05T07:21:32.573Z,10.50
2023-02-05T07:24:02.048Z,11.00
2023-02-05T07:26:31.616Z,10.48
2023-02-05T07:29:02.277Z,8.75
2023-02-05T07:31:31.864Z,9.52
2023-02-05T07:34:01.537Z,9.27
2023-02-05T07:36:31.048Z,9.18
2023-02-05T07:39:00.231Z,9.32
2023-02-05T07:41:29.849Z,9.95
2023-02-05T07:43:59.467Z,9.60
2023-02-05T07:46:30.556Z,8.98
2023-02-05T07:48:59.844Z,9.45
2023-02-05T07:51:29.913Z,9.35
2023-02-05T07:53:59.222Z,10.30
2023-02-05T07:56:28.796Z,10.25
2023-02-05T07:58:57.985Z,9.77
2023-02-05T08:01:27.528Z,10.43
2023-02-05T08:03:58.182Z,9.65
2023-02-05T08:06:27.918Z,10.48
2023-02-05T08:08:57.167Z,10.60
2023-02-05T08:11:26.894Z,12.10
2023-02-05T08:13:56.190Z,11.60
2023-02-05T08:16:25.814Z,12.02
2023-02-05T08:18:55.006Z,10.85
2023-02-05T08:21:26.036Z,12.07
2023-02-05T08:23:57.313Z,11.98
2023-02-05T08:26:26.980Z,12.60
2023-02-05T08:28:57.720Z,12.45
2023-02-05T08:31:27.651Z,11.77
2023-02-05T08:33:57.875Z,16.52
2023-02-05T08:36:28.929Z,14.80
2023-02-05T08:38:58.480Z,16.58
2023-02-05T08:41:28.127Z,14.18
2023-02-05T08:43:57.677Z,12.32
2023-02-05T08:46:33.829Z,12.30
2023-02-05T08:49:13.045Z,11.63
2023-02-05T08:51:44.234Z,11.57
2023-02-05T08:54:15.396Z,11.20
2023-02-05T08:56:46.197Z,12.77
2023-02-05T08:59:15.638Z,12.35
2023-02-05T09:01:45.880Z,11.63
2023-02-05T09:04:16.372Z,10.80
2023-02-05T09:06:47.826Z,12.38
2023-02-05T09:09:17.172Z,14.23
2023-02-05T09:11:48.209Z,12.50
2023-02-05T09:14:17.749Z,10.05
2023-02-05T09:16:47.281Z,10.35
2023-02-05T09:19:16.539Z,11.05
2023-02-05T09:21:47.535Z,12.20
2023-02-05T09:24:16.838Z,11.18
2023-02-05T09:26:46.471Z,12.07
2023-02-05T09:29:15.621Z,12.68
2023-02-05T09:31:45.382Z,13.25
2023-02-05T09:34:15.137Z,12.00
2023-02-05T09:36:46.271Z,13.45
2023-02-05T09:39:30.781Z,14.02
2023-02-05T09:42:17.225Z,12.65
2023-02-05T09:44:58.066Z,12.00
2023-02-05T09:47:35.665Z,13.13
2023-02-05T09:50:14.619Z,13.60
2023-02-05T09:52:51.103Z,12.88
2023-02-05T09:55:24.907Z,13.10
2023-02-05T09:57:57.875Z,12.85
2023-02-05T10:00:31.577Z,13.52
2023-02-05T10:03:08.896Z,12.35
2023-02-05T10:05:46.814Z,12.35
2023-02-05T10:08:28.153Z,12.93
2023-02-05T10:10:58.863Z,12.32
2023-02-05T10:13:34.436Z,12.95
2023-02-05T10:16:34.528Z,12.48
2023-02-05T10:19:28.154Z,12.60
2023-02-05T10:22:15.738Z,11.75
2023-02-05T10:25:26.309Z,12.40
2023-02-05T10:28:06.930Z,11.38
2023-02-05T10:30:44.560Z,12.27
2023-02-05T10:33:19.813Z,12.60
2023-02-05T10:36:00.659Z,12.20
2023-02-05T10:38:34.837Z,13.73
2023-02-05T10:41:14.091Z,13.60
2023-02-05T10:43:48.962Z,12.85
2023-02-05T10:46:19.510Z,12.48
2023-02-05T10:48:52.294Z,11.00
2023-02-05T10:51:25.790Z,11.05
2023-02-05T10:53:55.123Z,11.00
2023-02-05T10:56:26.031Z,10.68
2023-02-05T10:58:57.404Z,11.65
2023-02-05T11:01:31.795Z,9.60
2023-02-05T11:04:04.653Z,9.32
2023-02-05T11:06:39.287Z,9.52
2023-02-05T11:09:30.717Z,10.30
2023-02-05T11:12:04.730Z,15.05
2023-02-05T11:14:37.650Z,17.05
2023-02-05T11:17:19.945Z,17.27
2023-02-05T11:19:55.831Z,13.60
2023-02-05T11:22:30.694Z,27.38
2023-02-05T11:25:09.073Z,20.65
2023-02-05T11:27:40.569Z,8.32
2023-02-05T11:33:35.443Z,9.48
2023-02-05T11:36:08.186Z,10.38
2023-02-05T11:38:45.717Z,11.45
2023-02-05T11:41:28.310Z,8.98
2023-02-05T11:44:02.029Z,11.02
2023-02-05T11:46:37.989Z,6.75
2023-02-05T11:49:08.132Z,8.10
2023-02-05T11:51:44.698Z,10.95
2023-02-05T11:54:21.912Z,21.75
2023-02-05T11:57:06.596Z,13.27
2023-02-05T11:59:37.825Z,17.85
2023-02-05T12:02:29.759Z,8.88
2023-02-05T12:05:04.098Z,10.27
2023-02-05T12:07:41.247Z,7.32
2023-02-05T12:10:17.921Z,7.75
2023-02-05T12:12:57.563Z,10.27
2023-02-05T12:15:34.966Z,6.22
2023-02-05T12:18:16.687Z,5.45
2023-02-05T12:20:52.335Z,5.43
2023-02-05T12:23:40.724Z,5.57
2023-02-05T12:26:33.679Z,4.30
2023-02-05T12:29:14.101Z,8.57
2023-02-05T12:31:58.184Z,4.05
2023-02-05T12:34:36.034Z,4.38
2023-02-05T12:37:22.533Z,7.95
2023-02-05T12:39:55.553Z,5.03
2023-02-05T12:42:34.859Z,4.97
2023-02-05T12:45:34.648Z,6.32
2023-02-05T12:48:27.183Z,9.90
2023-02-05T12:51:08.685Z,7.30
2023-02-05T12:53:51.700Z,11.48
2023-02-05T12:56:42.850Z,37.22
2023-02-05T12:59:17.510Z,19.98
2023-02-05T13:01:54.705Z,18.98
2023-02-05T13:04:32.705Z,18.20
2023-02-05T13:07:08.572Z,22.75
2023-02-05T13:09:47.942Z,29.65
2023-02-05T13:12:23.270Z,9.43
2023-02-05T13:17:30.055Z,2.28
2023-02-05T13:20:03.189Z,1.00
2023-02-05T13:22:54.339Z,1.67
2023-02-05T13:25:47.211Z,7.80
2023-02-05T13:28:43.753Z,10.18
2023-02-05T13:31:23.703Z,7.28
2023-02-05T13:33:55.160Z,2.65
2023-02-05T13:36:48.318Z,5.45
2023-02-05T13:39:43.504Z,5.75
2023-02-05T13:42:48.571Z,4.35
2023-02-05T13:45:55.502Z,6.15
2023-02-05T13:48:51.237Z,7.22
2023-02-05T13:51:39.104Z,9.02
2023-02-05T13:54:45.956Z,5.18
2023-02-05T13:57:45.854Z,7.13
2023-02-05T14:00:17.825Z,11.75
2023-02-05T14:02:50.333Z,8.18
2023-02-05T14:05:30.722Z,9.55
2023-02-05T14:08:03.525Z,18.38
2023-02-05T14:10:36.336Z,5.25
2023-02-05T14:13:19.377Z,4.43
2023-02-05T14:15:49.328Z,3.80
2023-02-05T14:18:51.497Z,3.72
2023-02-05T14:22:09.993Z,5.60
2023-02-05T14:24:58.324Z,11.38
2023-02-05T14:27:49.664Z,8.00
2023-02-05T14:30:46.965Z,5.53
2023-02-05T14:33:37.232Z,11.10
2023-02-05T14:36:42.944Z,8.88
2023-02-05T14:39:26.757Z,10.13
2023-02-05T14:41:59.808Z,12.15
2023-02-05T14:44:32.963Z,16.48
2023-02-05T14:47:10.307Z,16.17
2023-02-05T14:49:44.419Z,14.82
2023-02-05T14:52:31.537Z,15.90
2023-02-05T14:55:07.533Z,15.93
2023-02-05T15:00:30.667Z,16.90
2023-02-05T15:03:26.809Z,11.60
2023-02-05T15:08:41.554Z,12.63
2023-02-05T15:11:17.049Z,12.00
2023-02-05T15:14:41.603Z,12.88
2023-02-05T15:17:51.151Z,14.48
2023-02-05T15:20:25.018Z,21.88
2023-02-05T15:23:01.488Z,23.63
2023-02-05T15:25:40.706Z,21.13
2023-02-05T15:28:19.854Z,26.65
2023-02-05T15:31:02.823Z,30.85
2023-02-05T15:33:43.298Z,28.13
2023-02-05T15:36:23.409Z,20.98
2023-02-05T15:39:03.784Z,21.17
2023-02-05T15:41:36.143Z,19.77
2023-02-05T15:44:06.159Z,26.35
2023-02-05T15:46:37.193Z,23.17
2023-02-05T15:49:07.677Z,15.23
2023-02-05T15:51:41.224Z,16.75
2023-02-05T15:54:20.259Z,13.35
2023-02-05T15:56:53.132Z,13.07
2023-02-05T15:59:29.417Z,12.73
2023-02-05T16:02:07.241Z,13.05
2023-02-05T16:04:38.514Z,13.48
2023-02-05T16:07:20.531Z,17.45
2023-02-05T16:09:52.918Z,15.48
2023-02-05T16:12:23.576Z,15.63
2023-02-05T16:15:03.651Z,15.65
2023-02-05T16:17:41.214Z,16.50
2023-02-05T16:20:26.678Z,19.45
2023-02-05T16:23:01.583Z,18.73
2023-02-05T16:25:42.782Z,18.25
2023-02-05T16:28:18.957Z,19.35
2023-02-05T16:30:53.764Z,22.55
2023-02-05T16:33:35.012Z,22.98
2023-02-05T16:36:09.275Z,23.35
2023-02-05T16:38:41.857Z,23.65
2023-02-05T16:41:23.438Z,24.98
2023-02-05T16:43:54.863Z,27.40
2023-02-05T16:46:26.986Z,26.45
2023-02-05T16:49:00.124Z,28.80
2023-02-05T16:51:36.681Z,30.58
2023-02-05T16:54:42.465Z,30.02
2023-02-05T16:57:15.867Z,28.90
2023-02-05T16:59:52.863Z,30.73
2023-02-05T17:02:30.484Z,27.10
2023-02-05T17:05:06.504Z,29.13
2023-02-05T17:07:36.362Z,28.02
2023-02-05T17:10:18.152Z,28.67
2023-02-05T17:12:58.310Z,28.80
2023-02-05T17:15:36.843Z,32.00
2023-02-05T17:18:29.947Z,34.47
2023-02-05T17:21:23.116Z,30.55
2023-02-05T17:23:53.658Z,33.67
2023-02-05T17:26:23.528Z,34.50
2023-02-05T17:28:55.795Z,37.55
2023-02-05T17:31:26.573Z,40.58
2023-02-05T17:33:58.414Z,37.95
2023-02-05T17:36:30.382Z,38.08
2023-02-05T17:39:00.180Z,36.95
2023-02-05T17:41:51.079Z,35.15
2023-02-05T17:44:20.782Z,32.63
2023-02-05T17:46:49.958Z,31.58
2023-02-05T17:49:19.405Z,31.98
2023-02-05T17:51:50.243Z,30.65
2023-02-05T17:54:21.547Z,31.60
2023-02-05T17:56:53.688Z,33.60
2023-02-05T17:59:26.036Z,38.30
2023-02-05T18:01:56.778Z,39.20
2023-02-05T18:04:26.585Z,40.10
2023-02-05T18:06:58.752Z,41.63
2023-02-05T18:09:28.418Z,47.58
2023-02-05T18:11:57.924Z,49.55
2023-02-05T18:14:27.538Z,46.63
2023-02-05T18:16:57.051Z,47.55
2023-02-05T18:19:27.054Z,43.40
2023-02-05T18:21:58.383Z,42.10
2023-02-05T18:24:28.213Z,40.72
2023-02-05T18:26:57.768Z,40.67
2023-02-05T18:29:27.965Z,38.10
2023-02-05T18:31:57.356Z,37.80
2023-02-05T18:34:27.679Z,38.08
2023-02-05T18:36:58.627Z,40.30
2023-02-05T18:39:29.684Z,34.97
2023-02-05T18:41:59.674Z,32.72
2023-02-05T18:44:29.812Z,35.28
2023-02-05T18:47:00.363Z,35.33
2023-02-05T18:49:30.152Z,33.90
2023-02-05T18:52:01.000Z,33.53
2023-02-05T18:54:31.116Z,29.77
2023-02-05T18:57:00.923Z,32.28
2023-02-05T18:59:30.727Z,28.80
2023-02-05T19:02:00.232Z,29.83
2023-02-05T19:04:33.198Z,33.90
2023-02-05T19:07:04.396Z,31.27
2023-02-05T19:09:34.231Z,29.05
2023-02-05T19:12:05.902Z,32.17
2023-02-05T19:14:35.736Z,38.13
2023-02-05T19:17:06.123Z,32.30
2023-02-05T19:19:35.882Z,36.30
2023-02-05T19:22:06.664Z,33.08
2023-02-05T19:24:36.464Z,33.20
2023-02-05T19:27:06.190Z,30.27
2023-02-05T19:29:39.738Z,32.22
2023-02-05T19:32:09.562Z,34.67
2023-02-05T19:34:41.167Z,28.60
2023-02-05T19:37:12.488Z,28.90
2023-02-05T19:39:41.988Z,30.45
2023-02-05T19:42:11.382Z,30.60
2023-02-05T19:44:40.969Z,32.42
2023-02-05T19:47:10.444Z,31.98
2023-02-05T19:49:40.818Z,32.58
2023-02-05T19:52:14.988Z,31.80
2023-02-05T19:54:44.705Z,33.53
2023-02-05T19:57:13.946Z,31.25
2023-02-05T19:59:44.153Z,29.98
2023-02-05T20:02:19.483Z,31.40
2023-02-05T20:04:50.657Z,33.42
2023-02-05T20:07:21.373Z,31.85
2023-02-05T20:09:51.537Z,31.20
2023-02-05T20:12:20.839Z,30.30
2023-02-05T20:14:51.197Z,30.67
2023-02-05T20:17:20.653Z,30.58
2023-02-05T20:19:52.146Z,30.88
2023-02-05T20:22:26.080Z,30.98
2023-02-05T20:24:55.629Z,30.45
2023-02-05T20:27:25.047Z,30.23
2023-02-05T20:30:11.344Z,29.38
2023-02-05T20:32:40.847Z,28.83
2023-02-05T20:35:10.750Z,27.70
2023-02-05T20:37:41.420Z,29.00
2023-02-05T20:40:12.440Z,30.92
2023-02-05T20:42:41.930Z,31.63
2023-02-05T20:45:12.506Z,36.60
2023-02-05T20:47:43.398Z,33.05
2023-02-05T20:50:13.078Z,32.00
2023-02-05T20:52:43.859Z,32.97
2023-02-05T20:55:13.971Z,31.95
2023-02-05T20:57:43.412Z,34.13
2023-02-05T21:00:15.124Z,35.03
2023-02-05T21:02:44.229Z,57.20
2023-02-05T21:05:13.866Z,32.67
2023-02-05T21:07:44.686Z,33.22
2023-02-05T21:10:14.358Z,33.78
2023-02-05T21:12:43.619Z,32.75
2023-02-05T21:15:16.642Z,31.42
2023-02-05T21:17:45.882Z,33.42
2023-02-05T21:20:15.397Z,31.77
2023-02-05T21:22:46.114Z,32.28
2023-02-05T21:25:15.701Z,33.10
2023-02-05T21:27:45.236Z,30.55
2023-02-05T21:30:15.368Z,31.10
2023-02-05T21:32:44.723Z,29.95
2023-02-05T21:35:14.247Z,29.90
2023-02-05T21:37:44.882Z,26.30
2023-02-05T21:40:14.716Z,29.02
2023-02-05T21:42:44.182Z,28.25
2023-02-05T21:45:13.725Z,27.25
2023-02-05T21:47:43.009Z,27.08
2023-02-05T21:50:12.702Z,29.40
2023-02-05T21:52:42.592Z,29.42
2023-02-05T21:55:13.598Z,27.90
2023-02-05T21:57:42.840Z,27.13
2023-02-05T22:00:13.722Z,28.35
2023-02-05T22:02:43.002Z,29.88
2023-02-05T22:05:12.654Z,30.48
2023-02-05T22:07:42.143Z,26.27
2023-02-05T22:10:13.170Z,29.13
2023-02-05T22:12:42.363Z,26.77
2023-02-05T22:15:13.522Z,25.00
2023-02-05T22:17:42.673Z,31.83
2023-02-05T22:20:13.413Z,29.55
2023-02-05T22:22:42.557Z,32.92
2023-02-05T22:25:13.375Z,31.38
2023-02-05T22:27:43.188Z,26.92
2023-02-05T22:30:13.721Z,38.80
2023-02-05T22:32:42.978Z,32.60
2023-02-05T22:35:12.469Z,24.88
2023-02-05T22:37:41.617Z,18.85
2023-02-05T22:40:13.703Z,18.40
2023-02-05T22:42:42.881Z,21.05
2023-02-05T22:45:12.456Z,20.38
2023-02-05T22:47:41.564Z,25.23
2023-02-05T22:50:11.402Z,20.50
2023-02-05T22:52:40.652Z,22.88
2023-02-05T22:55:10.179Z,24.40
2023-02-05T22:57:40.759Z,31.83
2023-02-05T23:00:11.171Z,22.50
2023-02-05T23:02:40.373Z,22.77
2023-02-05T23:05:10.159Z,29.65
2023-02-05T23:07:39.353Z,20.58
2023-02-05T23:10:09.195Z,28.58
2023-02-05T23:12:39.746Z,25.33
2023-02-05T23:15:09.743Z,20.35
2023-02-05T23:17:39.147Z,22.17
2023-02-05T23:20:10.734Z,20.67
2023-02-05T23:22:40.145Z,16.27
2023-02-05T23:25:09.880Z,22.13
2023-02-05T23:27:41.379Z,22.60
2023-02-05T23:30:12.108Z,16.67
2023-02-05T23:32:41.542Z,17.23
2023-02-05T23:35:11.157Z,17.95
2023-02-05T23:37:40.320Z,17.45
2023-02-05T23:40:10.763Z,17.48
2023-02-05T23:42:41.308Z,17.60
2023-02-05T23:45:10.903Z,17.90
2023-02-05T23:47:40.128Z,16.50
2023-02-05T23:50:10.484Z,16.23
2023-02-05T23:52:39.714Z,19.98
2023-02-05T23:55:09.760Z,13.15
2023-02-05T23:57:40.321Z,14.73
